Time,TemperatureF,DewpointF,PressureIn,WindDirection,WindDirectionDegrees,WindSpeedMPH,WindSpeedGustMPH,Humidity,HourlyPrecipIn,Conditions,Clouds,dailyrainin,SoftwareType,DateUTC
2013-01-04 00:00:00,28.3,21.7,30.12,NW,323,0.0,0.0,76,0.00,OVC,,0.00,WeatherDisplay:10.37,2013-01-04 05:00:00,
2013-01-04 00:03:00,28.4,21.8,30.12,NW,323,1.1,0.0,76,0.00,OVC,,0.00,WeatherDisplay:10.37,2013-01-04 05:03:00,
2013-01-04 00:08:00,28.6,22.0,30.12,NW,323,0.0,0.0,76,0.00,OVC,,0.00,WeatherDisplay:10.37,2013-01-04 05:08:00,
2013-01-04 00:13:00,28.7,21.8,30.12,NW,323,0.0,0.0,75,0.00,OVC,,0.00,WeatherDisplay:10.37,2013-01-04 05:13:00,
2013-01-04 00:18:00,28.7,21.8,30.12,NW,323,0.0,0.0,75,0.00,OVC,,0.00,WeatherDisplay:10.37,2013-01-04 05:18:00,
2013-01-04 00:23:00,28.8,21.9,30.11,NW,323,0.0,0.0,75,0.00,OVC,,0.00,WeatherDisplay:10.37,2013-01-04 05:23:00,
2013-01-04 00:28:00,28.8,21.9,30.11,NW,323,0.0,0.0,75,0.00,OVC,,0.00,WeatherDisplay:10.37,2013-01-04 05:28:00,
2013-01-04 00:33:00,28.9,22.0,30.11,NW,323,0.0,0.0,75,0.00,OVC,,0.00,WeatherDisplay:10.37,2013-01-04 05:33:00,
2013-01-04 00:38:00,29.0,22.1,30.10,NW,323,0.0,0.0,75,0.00,OVC,,0.00,WeatherDisplay:10.37,2013-01-04 05:38:00,
2013-01-04 00:43:00,29.0,22.1,30.10,NW,323,0.0,0.0,75,0.00,OVC,,0.00,WeatherDisplay:10.37,2013-01-04 05:43:00,
2013-01-04 00:48:00,28.9,22.0,30.10,NW,323,0.0,0.0,75,0.00,OVC,,0.00,WeatherDisplay:10.37,2013-01-04 05:48:00,
2013-01-04 00:53:00,28.8,22.2,30.10,NW,323,0.0,0.0,76,0.00,OVC,,0.00,WeatherDisplay:10.37,2013-01-04 05:53:00,
2013-01-04 00:58:00,28.5,21.9,30.10,NW,323,0.0,0.0,76,0.00,OVC,,0.00,WeatherDisplay:10.37,2013-01-04 05:58:00,
2013-01-04 01:03:00,28.3,21.7,30.10,NW,323,0.0,0.0,76,0.00,OVC,,0.00,WeatherDisplay:10.37,2013-01-04 06:03:00,
2013-01-04 01:08:00,28.0,21.7,30.10,NW,323,0.0,0.0,77,0.00,OVC,,0.00,WeatherDisplay:10.37,2013-01-04 06:08:00,
2013-01-04 01:13:00,27.7,21.7,30.10,NW,323,0.0,0.0,78,0.00,CLR,,0.00,WeatherDisplay:10.37,2013-01-04 06:13:00,
2013-01-04 01:18:00,27.5,21.5,30.10,NW,323,0.0,0.0,78,0.00,CLR,,0.00,WeatherDisplay:10.37,2013-01-04 06:18:00,
2013-01-04 01:23:00,27.2,21.2,30.10,NW,323,0.0,0.0,78,0.00,CLR,,0.00,WeatherDisplay:10.37,2013-01-04 06:23:00,
2013-01-04 01:28:00,27.0,21.4,30.10,NW,323,0.0,0.0,79,0.00,CLR,,0.00,WeatherDisplay:10.37,2013-01-04 06:28:00,
2013-01-04 01:33:00,26.7,21.1,30.10,NW,323,0.0,0.0,79,0.00,CLR,,0.00,WeatherDisplay:10.37,2013-01-04 06:33:00,
2013-01-04 01:39:00,26.5,20.9,30.10,NW,323,0.0,0.0,79,0.00,CLR,,0.00,WeatherDisplay:10.37,2013-01-04 06:39:00,
2013-01-04 01:44:00,26.2,20.6,30.10,NW,323,0.0,0.0,79,0.00,CLR,,0.00,WeatherDisplay:10.37,2013-01-04 06:44:00,
2013-01-04 01:49:00,26.0,20.4,30.10,NW,323,0.0,0.0,79,0.00,CLR,,0.00,WeatherDisplay:10.37,2013-01-04 06:49:00,
2013-01-04 01:54:00,25.8,20.5,30.10,NW,323,0.0,0.0,80,0.00,CLR,,0.00,WeatherDisplay:10.37,2013-01-04 06:54:00,
2013-01-04 01:59:00,25.6,20.3,30.11,NW,323,2.3,2.3,80,0.00,CLR,,0.00,WeatherDisplay:10.37,2013-01-04 06:59:00,
2013-01-04 02:04:00,25.4,20.4,30.11,NW,323,0.0,0.0,81,0.00,CLR,,0.00,WeatherDisplay:10.37,2013-01-04 07:04:00,
2013-01-04 02:09:00,25.3,20.3,30.11,NW,323,0.0,0.0,81,0.00,CLR,,0.00,WeatherDisplay:10.37,2013-01-04 07:09:00,
2013-01-04 02:14:00,25.1,20.1,30.11,NW,323,0.0,0.0,81,0.00,CLR,,0.00,WeatherDisplay:10.37,2013-01-04 07:14:00,
2013-01-04 02:19:00,25.1,20.4,30.11,NW,323,0.0,0.0,82,0.00,CLR,,0.00,WeatherDisplay:10.37,2013-01-04 07:19:00,
2013-01-04 02:24:00,24.9,20.2,30.11,NW,323,0.0,0.0,82,0.00,CLR,,0.00,WeatherDisplay:10.37,2013-01-04 07:24:00,
2013-01-04 02:29:00,24.8,20.1,30.11,NW,323,1.1,0.0,82,0.00,CLR,,0.00,WeatherDisplay:10.37,2013-01-04 07:29:00,
2013-01-04 02:34:00,24.8,20.1,30.12,NW,323,0.0,0.0,82,0.00,CLR,,0.00,WeatherDisplay:10.37,2013-01-04 07:34:00,
2013-01-04 02:39:00,24.8,20.4,30.12,NW,323,0.0,0.0,83,0.00,CLR,,0.00,WeatherDisplay:10.37,2013-01-04 07:39:00,
2013-01-04 02:44:00,24.8,20.4,30.12,NW,323,0.0,0.0,83,0.00,CLR,,0.00,WeatherDisplay:10.37,2013-01-04 07:44:00,
2013-01-04 02:49:00,24.9,20.5,30.12,NW,323,0.0,0.0,83,0.00,CLR,,0.00,WeatherDisplay:10.37,2013-01-04 07:49:00,
2013-01-04 02:54:00,25.0,20.6,30.11,NW,323,0.0,0.0,83,0.00,CLR,,0.00,WeatherDisplay:10.37,2013-01-04 07:54:00,
2013-01-04 02:59:00,25.1,20.9,30.11,NW,323,0.0,0.0,84,0.00,CLR,,0.00,WeatherDisplay:10.37,2013-01-04 07:59:00,
2013-01-04 03:04:00,25.2,21.0,30.11,NW,323,0.0,0.0,84,0.00,CLR,,0.00,WeatherDisplay:10.37,2013-01-04 08:04:00,
2013-01-04 03:09:00,25.3,21.1,30.11,NW,323,0.0,0.0,84,0.00,CLR,,0.00,WeatherDisplay:10.37,2013-01-04 08:09:00,
2013-01-04 03:14:00,25.4,21.5,30.11,NW,323,0.0,0.0,85,0.00,OVC,,0.00,WeatherDisplay:10.37,2013-01-04 08:14:00,
2013-01-04 03:19:00,25.6,21.7,30.11,NW,323,0.0,0.0,85,0.00,OVC,,0.00,WeatherDisplay:10.37,2013-01-04 08:19:00,
2013-01-04 03:24:00,25.7,21.8,30.12,NW,323,0.0,0.0,85,0.00,OVC,,0.00,WeatherDisplay:10.37,2013-01-04 08:24:00,
2013-01-04 03:29:00,25.8,21.9,30.11,NW,323,0.0,0.0,85,0.00,OVC,,0.00,WeatherDisplay:10.37,2013-01-04 08:29:00,
2013-01-04 03:34:00,25.9,22.0,30.12,NW,323,0.0,0.0,85,0.00,OVC,,0.00,WeatherDisplay:10.37,2013-01-04 08:34:00,
2013-01-04 03:39:00,26.2,22.3,30.11,NW,323,0.0,0.0,85,0.00,OVC,,0.00,WeatherDisplay:10.37,2013-01-04 08:39:00,
2013-01-04 03:44:00,26.3,22.4,30.12,NW,323,0.0,0.0,85,0.00,OVC,,0.00,WeatherDisplay:10.37,2013-01-04 08:44:00,
2013-01-04 03:49:00,26.5,22.6,30.12,NW,323,0.0,0.0,85,0.00,OVC,,0.00,WeatherDisplay:10.37,2013-01-04 08:49:00,
2013-01-04 03:54:00,26.7,22.8,30.12,NW,323,0.0,0.0,85,0.00,OVC,,0.00,WeatherDisplay:10.37,2013-01-04 08:54:00,
2013-01-04 03:59:00,26.9,23.0,30.12,NW,323,0.0,0.0,85,0.00,OVC,,0.00,WeatherDisplay:10.37,2013-01-04 08:59:00,
2013-01-04 04:04:00,27.1,22.9,30.11,NW,323,0.0,0.0,84,0.00,OVC,,0.00,WeatherDisplay:10.37,2013-01-04 09:04:00,
2013-01-04 04:09:00,27.5,23.0,30.12,NW,323,0.0,0.0,83,0.00,OVC,,0.00,WeatherDisplay:10.37,2013-01-04 09:09:00,
2013-01-04 04:14:00,28.0,23.2,30.11,NW,319,2.3,2.3,82,0.00,OVC,,0.00,WeatherDisplay:10.37,2013-01-04 09:14:00,
2013-01-04 04:19:00,28.5,23.4,30.11,NW,319,0.0,0.1,81,0.00,OVC,,0.00,WeatherDisplay:10.37,2013-01-04 09:19:00,
2013-01-04 04:24:00,29.1,23.7,30.11,NW,314,0.0,0.0,80,0.00,OVC,,0.00,WeatherDisplay:10.37,2013-01-04 09:24:00,
2013-01-04 04:29:00,29.7,23.7,30.11,NW,319,2.3,0.0,78,0.00,OVC,,0.00,WeatherDisplay:10.37,2013-01-04 09:29:00,
2013-01-04 04:34:00,30.2,23.9,30.11,NW,314,1.0,1.0,77,0.00,OVC,,0.00,WeatherDisplay:10.37,2013-01-04 09:34:00,
2013-01-04 04:39:00,30.6,23.9,30.11,NW,319,0.0,0.0,76,0.00,OVC,,0.00,WeatherDisplay:10.37,2013-01-04 09:39:00,
2013-01-04 04:44:00,31.0,24.0,30.11,West,279,3.5,3.5,75,0.00,OVC,,0.00,WeatherDisplay:10.37,2013-01-04 09:44:00,
2013-01-04 04:49:00,31.4,24.4,30.11,South,187,0.0,0.0,75,0.00,OVC,,0.00,WeatherDisplay:10.37,2013-01-04 09:49:00,
2013-01-04 04:54:00,31.6,24.3,30.11,South,183,1.1,1.1,74,0.00,OVC,,0.00,WeatherDisplay:10.37,2013-01-04 09:54:00,
2013-01-04 04:59:00,31.7,24.0,30.11,South,188,0.0,0.0,73,0.00,OVC,,0.00,WeatherDisplay:10.37,2013-01-04 09:59:00,
2013-01-04 05:04:00,31.8,24.1,30.12,South,188,2.3,0.0,73,0.00,OVC,,0.00,WeatherDisplay:10.37,2013-01-04 10:04:00,
2013-01-04 05:09:00,31.9,24.2,30.11,South,188,1.1,1.1,73,0.00,OVC,,0.00,WeatherDisplay:10.37,2013-01-04 10:09:00,
2013-01-04 05:14:00,32.0,24.3,30.12,South,188,0.0,0.0,73,0.00,OVC,,0.00,WeatherDisplay:10.37,2013-01-04 10:14:00,
2013-01-04 05:19:00,32.1,24.1,30.12,North,356,2.3,2.3,72,0.00,OVC,,0.00,WeatherDisplay:10.37,2013-01-04 10:19:00,
2013-01-04 05:24:00,32.2,24.2,30.12,North,356,0.0,0.0,72,0.00,OVC,,0.00,WeatherDisplay:10.37,2013-01-04 10:24:00,
2013-01-04 05:29:00,32.3,24.3,30.12,North,356,1.1,0.0,72,0.00,OVC,,0.00,WeatherDisplay:10.37,2013-01-04 10:29:00,
2013-01-04 05:34:00,32.4,24.0,30.12,North,356,0.0,0.2,71,0.00,OVC,,0.00,WeatherDisplay:10.37,2013-01-04 10:34:00,
2013-01-04 05:39:00,32.5,24.1,30.12,North,358,1.1,1.1,71,0.00,OVC,,0.00,WeatherDisplay:10.37,2013-01-04 10:39:00,
2013-01-04 05:44:00,32.5,23.8,30.12,West,273,2.3,0.0,70,0.00,OVC,,0.00,WeatherDisplay:10.37,2013-01-04 10:44:00,
2013-01-04 05:49:00,32.6,24.2,30.11,NW,309,1.1,1.1,71,0.00,OVC,,0.00,WeatherDisplay:10.37,2013-01-04 10:49:00,
2013-01-04 05:54:00,32.5,24.1,30.12,ESE,109,1.1,0.0,71,0.00,OVC,,0.00,WeatherDisplay:10.37,2013-01-04 10:54:00,
2013-01-04 05:59:00,32.4,23.7,30.12,NW,314,1.1,1.1,70,0.00,OVC,,0.00,WeatherDisplay:10.37,2013-01-04 10:59:00,
2013-01-04 06:04:00,32.3,23.6,30.12,SSW,210,1.1,1.1,70,0.00,OVC,,0.00,WeatherDisplay:10.37,2013-01-04 11:04:00,
2013-01-04 06:09:00,32.3,23.6,30.12,NNW,344,1.0,1.0,70,0.00,OVC,,0.00,WeatherDisplay:10.37,2013-01-04 11:09:00,
2013-01-04 06:14:00,32.2,23.8,30.12,SSW,202,1.1,0.0,71,0.00,OVC,,0.00,WeatherDisplay:10.37,2013-01-04 11:14:00,
2013-01-04 06:19:00,32.1,23.8,30.12,West,263,1.1,1.1,71,0.00,OVC,,0.00,WeatherDisplay:10.37,2013-01-04 11:19:00,
2013-01-04 06:24:00,32.3,23.9,30.12,WNW,292,2.3,2.3,71,0.00,OVC,,0.00,WeatherDisplay:10.37,2013-01-04 11:24:00,
2013-01-04 06:29:00,32.5,23.8,30.12,West,278,4.6,4.6,70,0.00,OVC,,0.00,WeatherDisplay:10.37,2013-01-04 11:29:00,
2013-01-04 06:34:00,32.7,24.3,30.12,West,275,1.1,1.1,71,0.00,OVC,,0.00,WeatherDisplay:10.37,2013-01-04 11:34:00,
2013-01-04 06:40:00,32.9,24.2,30.12,NNW,328,5.8,5.8,70,0.00,OVC,,0.00,WeatherDisplay:10.37,2013-01-04 11:40:00,
2013-01-04 06:45:00,33.0,24.3,30.12,NNW,328,2.3,2.3,70,0.00,OVC,,0.00,WeatherDisplay:10.37,2013-01-04 11:45:00,
2013-01-04 06:50:00,33.1,24.4,30.12,SE,143,1.1,1.1,70,0.00,OVC,,0.00,WeatherDisplay:10.37,2013-01-04 11:50:00,
2013-01-04 06:55:00,33.2,24.5,30.12,NW,325,2.3,2.3,70,0.00,OVC,,0.00,WeatherDisplay:10.37,2013-01-04 11:55:00,
2013-01-04 07:00:00,33.2,24.5,30.12,NW,319,3.5,3.5,70,0.00,OVC,,0.00,WeatherDisplay:10.37,2013-01-04 12:00:00,
2013-01-04 07:05:00,33.3,24.2,30.11,West,275,2.3,2.3,69,0.00,OVC,,0.00,WeatherDisplay:10.37,2013-01-04 12:05:00,
2013-01-04 07:10:00,33.3,24.2,30.11,WNW,294,3.0,3.0,69,0.00,OVC,,0.00,WeatherDisplay:10.37,2013-01-04 12:10:00,
2013-01-04 07:15:00,33.4,24.3,30.12,NW,326,3.5,3.5,69,0.00,OVC,,0.00,WeatherDisplay:10.37,2013-01-04 12:15:00,
2013-01-04 07:20:00,33.4,24.3,30.12,WNW,289,2.0,2.0,69,0.00,OVC,,0.00,WeatherDisplay:10.37,2013-01-04 12:20:00,
2013-01-04 07:25:00,33.4,24.0,30.12,NW,325,2.3,2.3,68,0.00,OVC,,0.00,WeatherDisplay:10.37,2013-01-04 12:25:00,
2013-01-04 07:30:00,33.4,24.0,30.12,West,264,1.1,1.1,68,0.00,OVC,,0.00,WeatherDisplay:10.37,2013-01-04 12:30:00,
2013-01-04 07:35:00,33.4,24.0,30.12,WSW,250,1.1,1.1,68,0.00,OVC,,0.00,WeatherDisplay:10.37,2013-01-04 12:35:00,
2013-01-04 07:40:00,33.4,24.0,30.12,South,186,1.1,1.1,68,0.00,OVC,,0.00,WeatherDisplay:10.37,2013-01-04 12:40:00,
2013-01-04 07:45:00,33.5,24.1,30.12,WSW,252,2.3,2.3,68,0.00,OVC,,0.00,WeatherDisplay:10.37,2013-01-04 12:45:00,
2013-01-04 07:50:00,33.4,24.0,30.11,WSW,237,3.5,3.5,68,0.00,OVC,,0.00,WeatherDisplay:10.37,2013-01-04 12:50:00,
2013-01-04 07:55:00,33.4,24.3,30.11,SW,220,1.1,0.0,69,0.00,OVC,,0.00,WeatherDisplay:10.37,2013-01-04 12:55:00,
2013-01-04 08:00:00,33.4,24.3,30.11,SW,221,2.3,2.3,69,0.00,OVC,,0.00,WeatherDisplay:10.37,2013-01-04 13:00:00,
2013-01-04 08:05:00,33.4,24.3,30.11,West,277,2.3,2.3,69,0.00,OVC,,0.00,WeatherDisplay:10.37,2013-01-04 13:05:00,
2013-01-04 08:10:00,33.4,24.7,30.11,WSW,253,1.1,0.0,70,0.00,OVC,,0.00,WeatherDisplay:10.37,2013-01-04 13:10:00,
2013-01-04 08:15:00,33.4,24.3,30.11,WSW,254,2.3,2.3,69,0.00,OVC,,0.00,WeatherDisplay:10.37,2013-01-04 13:15:00,
2013-01-04 08:20:00,33.3,24.2,30.12,SW,223,3.5,0.0,69,0.00,OVC,,0.00,WeatherDisplay:10.37,2013-01-04 13:20:00,
2013-01-04 08:25:00,33.4,24.7,30.12,WSW,252,1.0,1.0,70,0.00,OVC,,0.00,WeatherDisplay:10.37,2013-01-04 13:25:00,
2013-01-04 08:30:00,33.4,24.7,30.12,West,270,2.3,2.3,70,0.00,OVC,,0.00,WeatherDisplay:10.37,2013-01-04 13:30:00,
2013-01-04 08:35:00,33.4,24.7,30.12,WSW,257,2.3,2.3,70,0.00,OVC,,0.00,WeatherDisplay:10.37,2013-01-04 13:35:00,
2013-01-04 08:40:00,33.4,24.7,30.12,NW,324,3.5,3.5,70,0.00,OVC,,0.00,WeatherDisplay:10.37,2013-01-04 13:40:00,
2013-01-04 08:45:00,33.5,24.8,30.11,NW,314,2.3,2.3,70,0.00,OVC,,0.00,WeatherDisplay:10.37,2013-01-04 13:45:00,
2013-01-04 08:50:00,33.6,24.5,30.12,NW,325,3.0,3.0,69,0.00,OVC,,0.00,WeatherDisplay:10.37,2013-01-04 13:50:00,
2013-01-04 08:55:00,33.6,24.9,30.12,SSW,202,1.1,1.1,70,0.00,OVC,,0.00,WeatherDisplay:10.37,2013-01-04 13:55:00,
2013-01-04 09:00:00,33.7,25.0,30.13,SSW,211,1.1,0.0,70,0.00,OVC,,0.00,WeatherDisplay:10.37,2013-01-04 14:00:00,
2013-01-04 09:05:00,33.8,24.7,30.13,SW,225,3.5,3.5,69,0.00,OVC,,0.00,WeatherDisplay:10.37,2013-01-04 14:05:00,
2013-01-04 09:10:00,33.8,24.7,30.13,SSW,192,2.3,2.3,69,0.00,OVC,,0.00,WeatherDisplay:10.37,2013-01-04 14:10:00,
2013-01-04 09:15:00,33.9,24.8,30.13,West,279,3.5,3.5,69,0.00,OVC,,0.00,WeatherDisplay:10.37,2013-01-04 14:15:00,
2013-01-04 09:20:00,34.0,24.9,30.13,WSW,249,3.5,0.0,69,0.00,OVC,,0.00,WeatherDisplay:10.37,2013-01-04 14:20:00,
2013-01-04 09:25:00,34.1,25.0,30.12,SSW,195,2.0,2.0,69,0.00,OVC,,0.00,WeatherDisplay:10.37,2013-01-04 14:25:00,
2013-01-04 09:30:00,34.2,25.1,30.13,WNW,291,1.1,1.2,69,0.00,OVC,,0.00,WeatherDisplay:10.37,2013-01-04 14:30:00,
2013-01-04 09:35:00,34.3,24.8,30.13,WNW,303,1.1,1.1,68,0.00,OVC,,0.00,WeatherDisplay:10.37,2013-01-04 14:35:00,
2013-01-04 09:40:00,34.4,24.9,30.12,WSW,253,3.5,3.5,68,0.00,OVC,,0.00,WeatherDisplay:10.37,2013-01-04 14:40:00,
2013-01-04 09:45:00,34.4,24.9,30.12,NNW,342,2.3,2.3,68,0.00,OVC,,0.00,WeatherDisplay:10.37,2013-01-04 14:45:00,
2013-01-04 09:51:00,34.4,24.6,30.13,NNW,329,4.6,4.6,67,0.00,OVC,,0.00,WeatherDisplay:10.37,2013-01-04 14:51:00,
2013-01-04 09:55:00,34.4,24.6,30.12,North,351,4.6,4.6,67,0.00,OVC,,0.00,WeatherDisplay:10.37,2013-01-04 14:55:00,
2013-01-04 10:01:00,34.5,24.7,30.13,West,273,2.3,2.3,67,0.00,OVC,,0.00,WeatherDisplay:10.37,2013-01-04 15:01:00,
2013-01-04 10:06:00,34.6,24.4,30.13,NW,304,6.9,6.9,66,0.00,OVC,,0.00,WeatherDisplay:10.37,2013-01-04 15:06:00,
2013-01-04 10:11:00,34.6,24.4,30.12,NW,309,3.5,3.5,66,0.00,OVC,,0.00,WeatherDisplay:10.37,2013-01-04 15:11:00,
2013-01-04 10:16:00,34.6,24.0,30.12,NNW,336,4.6,4.6,65,0.00,OVC,,0.00,WeatherDisplay:10.37,2013-01-04 15:16:00,
2013-01-04 10:21:00,34.7,24.1,30.12,WSW,240,10.4,10.4,65,0.00,OVC,,0.00,WeatherDisplay:10.37,2013-01-04 15:21:00,
2013-01-04 10:26:00,34.7,24.1,30.12,WNW,303,3.0,3.0,65,0.00,OVC,,0.00,WeatherDisplay:10.37,2013-01-04 15:26:00,
2013-01-04 10:31:00,34.7,24.1,30.11,WNW,301,2.3,2.3,65,0.00,OVC,,0.00,WeatherDisplay:10.37,2013-01-04 15:31:00,
2013-01-04 10:36:00,34.7,24.1,30.11,WNW,299,3.5,0.0,65,0.00,OVC,,0.00,WeatherDisplay:10.37,2013-01-04 15:36:00,
2013-01-04 10:41:00,34.8,24.2,30.11,NNW,328,3.5,3.5,65,0.00,OVC,,0.00,WeatherDisplay:10.37,2013-01-04 15:41:00,
2013-01-04 10:46:00,34.9,23.9,30.11,North,8,5.8,5.8,64,0.00,OVC,,0.00,WeatherDisplay:10.37,2013-01-04 15:46:00,
2013-01-04 10:51:00,34.9,23.9,30.10,WSW,244,2.3,2.3,64,0.00,OVC,,0.00,WeatherDisplay:10.37,2013-01-04 15:51:00,
2013-01-04 10:56:00,35.0,24.4,30.10,NNW,347,6.0,6.0,65,0.00,OVC,,0.00,WeatherDisplay:10.37,2013-01-04 15:56:00,
2013-01-04 11:01:00,35.0,24.4,30.10,NW,304,2.3,2.3,65,0.00,OVC,,0.00,WeatherDisplay:10.37,2013-01-04 16:01:00,
2013-01-04 11:06:00,35.0,24.4,30.11,WSW,248,3.0,3.0,65,0.00,OVC,,0.00,WeatherDisplay:10.37,2013-01-04 16:06:00,
2013-01-04 11:11:00,34.9,23.9,30.10,NW,314,7.0,7.0,64,0.00,OVC,,0.00,WeatherDisplay:10.37,2013-01-04 16:11:00,
2013-01-04 11:16:00,34.9,24.3,30.10,NW,314,4.6,4.6,65,0.00,OVC,,0.00,WeatherDisplay:10.37,2013-01-04 16:16:00,
2013-01-04 11:21:00,34.9,24.7,30.10,WSW,244,1.1,0.0,66,0.00,OVC,,0.00,WeatherDisplay:10.37,2013-01-04 16:21:00,
2013-01-04 11:26:00,34.9,24.3,30.09,NW,314,3.5,3.5,65,0.00,OVC,,0.00,WeatherDisplay:10.37,2013-01-04 16:26:00,
2013-01-04 11:31:00,34.9,24.7,30.09,WSW,249,3.0,3.0,66,0.00,OVC,,0.00,WeatherDisplay:10.37,2013-01-04 16:31:00,
2013-01-04 11:36:00,35.1,24.9,30.09,SW,233,5.8,5.8,66,0.00,OVC,,0.00,WeatherDisplay:10.37,2013-01-04 16:36:00,
2013-01-04 11:41:00,35.1,24.5,30.09,North,358,3.5,3.5,65,0.00,OVC,,0.00,WeatherDisplay:10.37,2013-01-04 16:41:00,
2013-01-04 11:46:00,35.1,24.5,30.09,SW,221,6.9,6.9,65,0.00,OVC,,0.00,WeatherDisplay:10.37,2013-01-04 16:46:00,
2013-01-04 11:51:00,35.1,24.9,30.09,NNW,338,3.0,3.0,66,0.00,OVC,,0.00,WeatherDisplay:10.37,2013-01-04 16:51:00,
2013-01-04 11:56:00,35.2,25.0,30.08,NNW,329,3.5,3.5,66,0.00,OVC,,0.00,WeatherDisplay:10.37,2013-01-04 16:56:00,
2013-01-04 12:01:00,35.2,24.6,30.08,SW,229,4.6,4.6,65,0.00,OVC,,0.00,WeatherDisplay:10.37,2013-01-04 17:01:00,
2013-01-04 12:06:00,35.2,24.6,30.08,NW,324,8.1,8.1,65,0.00,OVC,,0.00,WeatherDisplay:10.37,2013-01-04 17:06:00,
2013-01-04 12:11:00,35.3,25.1,30.08,WNW,293,3.5,3.5,66,0.00,OVC,,0.00,WeatherDisplay:10.37,2013-01-04 17:11:00,
2013-01-04 12:16:00,35.5,24.9,30.08,West,260,5.8,5.8,65,0.00,OVC,,0.00,WeatherDisplay:10.37,2013-01-04 17:16:00,
2013-01-04 12:21:00,35.5,24.5,30.07,WSW,240,5.8,5.8,64,0.00,OVC,,0.00,WeatherDisplay:10.37,2013-01-04 17:21:00,
2013-01-04 12:26:00,35.4,24.8,30.07,West,264,4.6,4.6,65,0.00,OVC,,0.00,WeatherDisplay:10.37,2013-01-04 17:26:00,
2013-01-04 12:31:00,35.5,24.5,30.07,NW,319,3.5,3.5,64,0.00,OVC,,0.00,WeatherDisplay:10.37,2013-01-04 17:31:00,
2013-01-04 12:36:00,35.6,25.0,30.06,NW,314,2.3,2.3,65,0.00,OVC,,0.00,WeatherDisplay:10.37,2013-01-04 17:36:00,
2013-01-04 12:41:00,35.6,25.0,30.06,WSW,248,3.5,3.5,65,0.00,OVC,,0.00,WeatherDisplay:10.37,2013-01-04 17:41:00,
2013-01-04 12:46:00,35.6,24.6,30.06,NNW,329,4.6,4.6,64,0.00,OVC,,0.00,WeatherDisplay:10.37,2013-01-04 17:46:00,
2013-01-04 12:51:00,35.6,25.0,30.05,WNW,287,3.5,3.5,65,0.00,OVC,,0.00,WeatherDisplay:10.37,2013-01-04 17:51:00,
2013-01-04 12:56:00,35.7,24.7,30.05,WNW,302,4.6,4.6,64,0.00,OVC,,0.00,WeatherDisplay:10.37,2013-01-04 17:56:00,
2013-01-04 13:01:00,35.7,24.7,30.05,NNW,333,4.6,4.6,64,0.00,OVC,,0.00,WeatherDisplay:10.37,2013-01-04 18:01:00,
2013-01-04 13:06:00,35.7,24.7,30.05,WSW,258,4.0,4.0,64,0.00,OVC,,0.00,WeatherDisplay:10.37,2013-01-04 18:06:00,
2013-01-04 13:11:00,35.7,24.3,30.04,NNW,332,6.9,6.9,63,0.00,OVC,,0.00,WeatherDisplay:10.37,2013-01-04 18:11:00,
2013-01-04 13:16:00,35.8,24.8,30.04,North,11,5.0,5.0,64,0.00,OVC,,0.00,WeatherDisplay:10.37,2013-01-04 18:16:00,
2013-01-04 13:21:00,35.9,24.9,30.04,NW,314,4.6,4.6,64,0.00,OVC,,0.00,WeatherDisplay:10.37,2013-01-04 18:21:00,
2013-01-04 13:26:00,36.0,25.0,30.04,West,277,8.1,8.1,64,0.00,OVC,,0.00,WeatherDisplay:10.37,2013-01-04 18:26:00,
2013-01-04 13:31:00,36.0,25.0,30.04,NNW,333,10.0,10.0,64,0.00,OVC,,0.00,WeatherDisplay:10.37,2013-01-04 18:31:00,
2013-01-04 13:36:00,36.0,25.0,30.03,NNE,26,3.5,3.5,64,0.00,OVC,,0.00,WeatherDisplay:10.37,2013-01-04 18:36:00,
2013-01-04 13:41:00,36.0,24.6,30.03,NNW,341,6.0,6.0,63,0.00,OVC,,0.00,WeatherDisplay:10.37,2013-01-04 18:41:00,
2013-01-04 13:46:00,36.2,25.2,30.03,North,5,1.1,0.0,64,0.00,OVC,,0.00,WeatherDisplay:10.37,2013-01-04 18:46:00,
2013-01-04 13:51:00,36.4,25.0,30.03,WSW,249,3.5,3.5,63,0.00,OVC,,0.00,WeatherDisplay:10.37,2013-01-04 18:51:00,
2013-01-04 13:56:00,36.6,24.8,30.03,NNW,337,3.5,3.5,62,0.00,OVC,,0.00,WeatherDisplay:10.37,2013-01-04 18:56:00,
2013-01-04 14:01:00,36.7,24.9,30.02,WSW,256,3.0,3.0,62,0.00,OVC,,0.00,WeatherDisplay:10.37,2013-01-04 19:01:00,
2013-01-04 14:06:00,36.7,24.9,30.02,SW,233,3.5,3.5,62,0.00,OVC,,0.00,WeatherDisplay:10.37,2013-01-04 19:06:00,
2013-01-04 14:11:00,36.7,25.3,30.02,WSW,252,3.5,3.5,63,0.00,OVC,,0.00,WeatherDisplay:10.37,2013-01-04 19:11:00,
2013-01-04 14:16:00,36.8,25.0,30.02,WNW,295,3.0,3.0,62,0.00,OVC,,0.00,WeatherDisplay:10.37,2013-01-04 19:16:00,
2013-01-04 14:21:00,36.6,25.2,30.02,WSW,254,5.8,5.8,63,0.00,OVC,,0.00,WeatherDisplay:10.37,2013-01-04 19:21:00,
2013-01-04 14:26:00,36.6,24.8,30.02,NNW,339,3.5,3.5,62,0.00,OVC,,0.00,WeatherDisplay:10.37,2013-01-04 19:26:00,
2013-01-04 14:31:00,36.7,24.9,30.01,WSW,254,6.9,6.9,62,0.00,OVC,,0.00,WeatherDisplay:10.37,2013-01-04 19:31:00,
2013-01-04 14:36:00,36.8,25.0,30.01,NNW,340,3.5,3.5,62,0.00,OVC,,0.00,WeatherDisplay:10.37,2013-01-04 19:36:00,
2013-01-04 14:41:00,37.0,25.2,30.01,WSW,238,3.5,3.5,62,0.00,OVC,,0.00,WeatherDisplay:10.37,2013-01-04 19:41:00,
2013-01-04 14:46:00,36.9,25.1,30.01,West,268,3.5,3.5,62,0.00,OVC,,0.00,WeatherDisplay:10.37,2013-01-04 19:46:00,
2013-01-04 14:51:00,36.9,25.1,30.01,WSW,237,2.3,2.3,62,0.00,OVC,,0.00,WeatherDisplay:10.37,2013-01-04 19:51:00,
2013-01-04 14:56:00,37.0,25.2,30.01,WSW,254,3.5,3.5,62,0.00,OVC,,0.00,WeatherDisplay:10.37,2013-01-04 19:56:00,
2013-01-04 15:01:00,37.1,25.7,30.01,WNW,284,2.3,2.3,63,0.00,OVC,,0.00,WeatherDisplay:10.37,2013-01-04 20:01:00,
2013-01-04 15:06:00,37.1,25.3,30.01,WSW,248,3.5,3.5,62,0.00,OVC,,0.00,WeatherDisplay:10.37,2013-01-04 20:06:00,
2013-01-04 15:11:00,37.1,25.3,30.01,SW,220,2.3,2.3,62,0.00,CLR,,0.00,WeatherDisplay:10.37,2013-01-04 20:11:00,
2013-01-04 15:16:00,37.2,25.4,30.01,North,351,2.3,2.3,62,0.00,CLR,,0.00,WeatherDisplay:10.37,2013-01-04 20:16:00,
2013-01-04 15:21:00,37.2,25.0,30.01,NNW,338,1.1,1.1,61,0.00,CLR,,0.00,WeatherDisplay:10.37,2013-01-04 20:21:00,
2013-01-04 15:26:00,37.2,25.4,30.02,WSW,256,3.5,3.5,62,0.00,CLR,,0.00,WeatherDisplay:10.37,2013-01-04 20:26:00,
2013-01-04 15:31:00,37.1,25.3,30.02,WNW,292,1.1,1.1,62,0.00,CLR,,0.00,WeatherDisplay:10.37,2013-01-04 20:31:00,
2013-01-04 15:36:00,37.1,25.3,30.01,SW,217,1.1,1.1,62,0.00,CLR,,0.00,WeatherDisplay:10.37,2013-01-04 20:36:00,
2013-01-04 15:42:00,37.0,25.2,30.01,NNW,331,3.5,3.5,62,0.00,CLR,,0.00,WeatherDisplay:10.37,2013-01-04 20:42:00,
2013-01-04 15:46:00,37.0,25.2,30.01,SSW,199,3.5,3.5,62,0.00,CLR,,0.00,WeatherDisplay:10.37,2013-01-04 20:46:00,
2013-01-04 15:52:00,37.0,25.6,30.01,SSW,206,2.3,2.3,63,0.00,CLR,,0.00,WeatherDisplay:10.37,2013-01-04 20:52:00,
2013-01-04 15:57:00,36.8,25.4,30.01,SSW,207,4.6,4.6,63,0.00,CLR,,0.00,WeatherDisplay:10.37,2013-01-04 20:57:00,
2013-01-04 16:02:00,36.8,25.4,30.01,NW,319,1.1,1.4,63,0.00,CLR,,0.00,WeatherDisplay:10.37,2013-01-04 21:02:00,
2013-01-04 16:07:00,36.8,25.4,30.01,West,268,3.5,3.5,63,0.00,CLR,,0.00,WeatherDisplay:10.37,2013-01-04 21:07:00,
2013-01-04 16:12:00,36.8,25.0,30.01,NNW,346,5.0,5.0,62,0.00,CLR,,0.00,WeatherDisplay:10.37,2013-01-04 21:12:00,
2013-01-04 16:17:00,36.8,25.4,30.01,NNW,344,3.5,3.5,63,0.00,CLR,,0.00,WeatherDisplay:10.37,2013-01-04 21:17:00,
2013-01-04 16:22:00,36.8,25.4,30.01,West,260,3.5,3.5,63,0.00,CLR,,0.00,WeatherDisplay:10.37,2013-01-04 21:22:00,
2013-01-04 16:27:00,36.7,25.3,30.01,WSW,240,6.9,6.9,63,0.00,CLR,,0.00,WeatherDisplay:10.37,2013-01-04 21:27:00,
2013-01-04 16:32:00,36.6,25.2,30.01,NNW,337,2.3,2.3,63,0.00,CLR,,0.00,WeatherDisplay:10.37,2013-01-04 21:32:00,
2013-01-04 16:37:00,36.5,25.1,30.01,SW,217,3.5,3.5,63,0.00,CLR,,0.00,WeatherDisplay:10.37,2013-01-04 21:37:00,
2013-01-04 16:42:00,36.4,25.0,30.00,South,188,4.6,4.6,63,0.00,CLR,,0.00,WeatherDisplay:10.37,2013-01-04 21:42:00,
2013-01-04 16:47:00,36.4,25.0,30.01,NNE,15,0.0,0.0,63,0.00,CLR,,0.00,WeatherDisplay:10.37,2013-01-04 21:47:00,
2013-01-04 16:52:00,36.2,25.2,30.00,WSW,251,2.3,2.3,64,0.00,CLR,,0.00,WeatherDisplay:10.37,2013-01-04 21:52:00,
2013-01-04 16:57:00,36.1,25.1,30.01,NW,309,4.0,4.0,64,0.00,CLR,,0.00,WeatherDisplay:10.37,2013-01-04 21:57:00,
2013-01-04 17:02:00,36.1,24.7,30.01,WNW,282,1.1,1.1,63,0.00,CLR,,0.00,WeatherDisplay:10.37,2013-01-04 22:02:00,
2013-01-04 17:07:00,36.1,25.1,30.01,WSW,245,2.3,2.3,64,0.00,CLR,,0.00,WeatherDisplay:10.37,2013-01-04 22:07:00,
2013-01-04 17:12:00,36.0,25.0,30.02,NW,319,2.3,2.3,64,0.00,CLR,,0.00,WeatherDisplay:10.37,2013-01-04 22:12:00,
2013-01-04 17:17:00,35.9,24.9,30.02,NW,314,2.3,2.3,64,0.00,CLR,,0.00,WeatherDisplay:10.37,2013-01-04 22:17:00,
2013-01-04 17:22:00,35.8,24.8,30.01,West,267,1.1,1.1,64,0.00,CLR,,0.00,WeatherDisplay:10.37,2013-01-04 22:22:00,
2013-01-04 17:27:00,35.8,24.8,30.01,NW,314,3.5,3.5,64,0.00,CLR,,0.00,WeatherDisplay:10.37,2013-01-04 22:27:00,
2013-01-04 17:32:00,35.9,24.9,30.01,WSW,249,3.5,3.5,64,0.00,CLR,,0.00,WeatherDisplay:10.37,2013-01-04 22:32:00,
2013-01-04 17:37:00,36.0,25.0,30.01,West,277,1.1,1.1,64,0.00,CLR,,0.00,WeatherDisplay:10.37,2013-01-04 22:37:00,
2013-01-04 17:42:00,36.0,25.0,30.01,South,184,3.5,3.5,64,0.00,CLR,,0.00,WeatherDisplay:10.37,2013-01-04 22:42:00,
2013-01-04 17:47:00,35.9,24.9,30.01,NW,319,2.3,2.3,64,0.00,CLR,,0.00,WeatherDisplay:10.37,2013-01-04 22:47:00,
2013-01-04 17:52:00,35.9,25.3,30.01,NW,314,2.0,2.0,65,0.00,CLR,,0.00,WeatherDisplay:10.37,2013-01-04 22:52:00,
2013-01-04 17:57:00,35.7,25.1,30.01,WSW,252,3.5,3.5,65,0.00,CLR,,0.00,WeatherDisplay:10.37,2013-01-04 22:57:00,
2013-01-04 18:02:00,35.7,25.1,30.02,NNW,334,1.1,1.1,65,0.00,CLR,,0.00,WeatherDisplay:10.37,2013-01-04 23:02:00,
2013-01-04 18:07:00,35.6,25.0,30.02,NNW,333,1.0,1.0,65,0.00,CLR,,0.00,WeatherDisplay:10.37,2013-01-04 23:07:00,
2013-01-04 18:12:00,35.4,24.8,30.02,NNW,331,1.1,0.0,65,0.00,CLR,,0.00,WeatherDisplay:10.37,2013-01-04 23:12:00,
2013-01-04 18:17:00,35.3,25.1,30.02,NNW,331,0.0,0.0,66,0.00,CLR,,0.00,WeatherDisplay:10.37,2013-01-04 23:17:00,
2013-01-04 18:22:00,35.0,24.8,30.02,NNW,331,0.0,0.0,66,0.00,CLR,,0.00,WeatherDisplay:10.37,2013-01-04 23:22:00,
2013-01-04 18:27:00,34.6,24.8,30.02,NNW,331,0.0,0.0,67,0.00,CLR,,0.00,WeatherDisplay:10.37,2013-01-04 23:27:00,
2013-01-04 18:32:00,34.4,24.9,30.02,NNW,331,1.0,0.0,68,0.00,CLR,,0.00,WeatherDisplay:10.37,2013-01-04 23:32:00,
2013-01-04 18:37:00,34.2,24.7,30.03,NNW,331,0.0,0.1,68,0.00,CLR,,0.00,WeatherDisplay:10.37,2013-01-04 23:37:00,
2013-01-04 18:42:00,34.1,25.0,30.03,NNW,331,4.0,4.0,69,0.00,CLR,,0.00,WeatherDisplay:10.37,2013-01-04 23:42:00,
2013-01-04 18:47:00,34.0,24.9,30.03,NNW,331,2.3,2.3,69,0.00,CLR,,0.00,WeatherDisplay:10.37,2013-01-04 23:47:00,
2013-01-04 18:52:00,34.0,24.9,30.03,NNW,331,2.3,2.3,69,0.00,CLR,,0.00,WeatherDisplay:10.37,2013-01-04 23:52:00,
2013-01-04 18:57:00,33.9,24.8,30.03,NNW,331,1.1,1.1,69,0.00,CLR,,0.00,WeatherDisplay:10.37,2013-01-04 23:57:00,
2013-01-04 19:02:00,33.9,24.8,30.03,NNW,331,0.0,0.0,69,0.00,CLR,,0.00,WeatherDisplay:10.37,2013-01-05 00:02:00,
2013-01-04 19:07:00,33.8,24.7,30.03,NNW,331,0.0,0.0,69,0.00,CLR,,0.00,WeatherDisplay:10.37,2013-01-05 00:07:00,
2013-01-04 19:12:00,33.6,24.5,30.03,South,179,1.0,1.7,69,0.00,CLR,,0.00,WeatherDisplay:10.37,2013-01-05 00:12:00,
2013-01-04 19:17:00,33.5,24.8,30.03,South,181,3.5,3.5,70,0.00,CLR,,0.00,WeatherDisplay:10.37,2013-01-05 00:17:00,
2013-01-04 19:22:00,33.6,24.9,30.03,South,180,2.3,2.3,70,0.00,CLR,,0.00,WeatherDisplay:10.37,2013-01-05 00:22:00,
2013-01-04 19:27:00,33.7,24.6,30.03,SW,219,1.1,1.1,69,0.00,CLR,,0.00,WeatherDisplay:10.37,2013-01-05 00:27:00,
2013-01-04 19:32:00,33.7,24.6,30.03,SW,219,1.0,1.0,69,0.00,CLR,,0.00,WeatherDisplay:10.37,2013-01-05 00:32:00,
2013-01-04 19:37:00,33.9,24.8,30.03,NW,325,2.3,2.3,69,0.00,CLR,,0.00,WeatherDisplay:10.37,2013-01-05 00:37:00,
2013-01-04 19:42:00,34.1,24.6,30.02,NW,323,1.1,0.0,68,0.00,CLR,,0.00,WeatherDisplay:10.37,2013-01-05 00:42:00,
2013-01-04 19:47:00,34.2,24.7,30.02,NW,323,1.1,1.1,68,0.00,CLR,,0.00,WeatherDisplay:10.37,2013-01-05 00:47:00,
2013-01-04 19:52:00,34.1,24.6,30.02,NW,323,2.0,2.0,68,0.00,CLR,,0.00,WeatherDisplay:10.37,2013-01-05 00:52:00,
2013-01-04 19:57:00,34.2,24.7,30.02,NW,323,2.3,2.3,68,0.00,CLR,,0.00,WeatherDisplay:10.37,2013-01-05 00:57:00,
2013-01-04 20:02:00,34.3,24.8,30.02,NW,314,5.8,5.8,68,0.00,CLR,,0.00,WeatherDisplay:10.37,2013-01-05 01:02:00,
2013-01-04 20:07:00,34.4,24.6,30.02,WNW,303,1.1,1.1,67,0.00,CLR,,0.00,WeatherDisplay:10.37,2013-01-05 01:07:00,
2013-01-04 20:12:00,34.4,24.9,30.01,West,265,3.5,0.0,68,0.00,CLR,,0.00,WeatherDisplay:10.37,2013-01-05 01:12:00,
2013-01-04 20:17:00,34.4,24.6,30.02,West,259,2.0,2.0,67,0.00,CLR,,0.00,WeatherDisplay:10.37,2013-01-05 01:17:00,
2013-01-04 20:22:00,34.4,24.6,30.02,WSW,258,1.1,0.0,67,0.00,CLR,,0.00,WeatherDisplay:10.37,2013-01-05 01:22:00,
2013-01-04 20:27:00,34.4,24.6,30.02,SW,231,1.1,1.1,67,0.00,CLR,,0.00,WeatherDisplay:10.37,2013-01-05 01:27:00,
2013-01-04 20:32:00,34.3,24.5,30.02,NNW,336,2.3,2.3,67,0.00,CLR,,0.00,WeatherDisplay:10.37,2013-01-05 01:32:00,
2013-01-04 20:37:00,34.2,24.4,30.02,SW,233,1.0,1.0,67,0.00,CLR,,0.00,WeatherDisplay:10.37,2013-01-05 01:37:00,
2013-01-04 20:42:00,34.2,24.4,30.02,West,277,4.6,4.6,67,0.00,CLR,,0.00,WeatherDisplay:10.37,2013-01-05 01:42:00,
2013-01-04 20:47:00,34.2,24.4,30.02,NNW,336,2.3,2.3,67,0.00,CLR,,0.00,WeatherDisplay:10.37,2013-01-05 01:47:00,
2013-01-04 20:52:00,34.3,24.5,30.02,NNW,335,2.3,2.3,67,0.00,CLR,,0.00,WeatherDisplay:10.37,2013-01-05 01:52:00,
2013-01-04 20:57:00,34.3,24.5,30.03,WSW,243,1.1,1.1,67,0.00,CLR,,0.00,WeatherDisplay:10.37,2013-01-05 01:57:00,
2013-01-04 21:03:00,34.4,24.2,30.03,NW,314,4.0,4.0,66,0.00,CLR,,0.00,WeatherDisplay:10.37,2013-01-05 02:03:00,
2013-01-04 21:08:00,34.4,24.2,30.03,NNW,329,4.6,4.6,66,0.00,CLR,,0.00,WeatherDisplay:10.37,2013-01-05 02:08:00,
2013-01-04 21:13:00,34.4,24.2,30.03,NW,309,6.9,6.9,66,0.00,CLR,,0.00,WeatherDisplay:10.37,2013-01-05 02:13:00,
2013-01-04 21:18:00,34.4,23.8,30.03,SE,146,4.0,4.0,65,0.00,CLR,,0.00,WeatherDisplay:10.37,2013-01-05 02:18:00,
2013-01-04 21:23:00,34.4,23.8,30.03,NNW,331,3.5,3.5,65,0.00,CLR,,0.00,WeatherDisplay:10.37,2013-01-05 02:23:00,
2013-01-04 21:28:00,34.4,24.2,30.03,WSW,242,1.1,1.1,66,0.00,CLR,,0.00,WeatherDisplay:10.37,2013-01-05 02:28:00,
2013-01-04 21:33:00,34.4,24.2,30.04,WSW,250,2.3,2.3,66,0.00,CLR,,0.00,WeatherDisplay:10.37,2013-01-05 02:33:00,
2013-01-04 21:38:00,34.4,24.2,30.04,WSW,245,1.1,1.1,66,0.00,CLR,,0.00,WeatherDisplay:10.37,2013-01-05 02:38:00,
2013-01-04 21:43:00,34.3,24.1,30.04,West,277,3.5,3.5,66,0.00,CLR,,0.00,WeatherDisplay:10.37,2013-01-05 02:43:00,
2013-01-04 21:48:00,34.2,23.7,30.04,WSW,242,2.3,2.3,65,0.00,CLR,,0.00,WeatherDisplay:10.37,2013-01-05 02:48:00,
2013-01-04 21:53:00,34.2,23.7,30.04,NNW,338,2.3,2.3,65,0.00,CLR,,0.00,WeatherDisplay:10.37,2013-01-05 02:53:00,
2013-01-04 21:58:00,34.1,23.9,30.04,NW,326,2.3,2.3,66,0.00,CLR,,0.00,WeatherDisplay:10.37,2013-01-05 02:58:00,
2013-01-04 22:03:00,34.1,23.9,30.04,West,271,4.6,4.6,66,0.00,CLR,,0.00,WeatherDisplay:10.37,2013-01-05 03:03:00,
2013-01-04 22:08:00,34.1,23.9,30.05,WNW,296,1.1,1.1,66,0.00,CLR,,0.00,WeatherDisplay:10.37,2013-01-05 03:08:00,
2013-01-04 22:13:00,34.0,23.8,30.05,NW,309,1.1,1.1,66,0.00,CLR,,0.00,WeatherDisplay:10.37,2013-01-05 03:13:00,
2013-01-04 22:18:00,33.9,23.7,30.04,WSW,252,2.3,2.3,66,0.00,CLR,,0.00,WeatherDisplay:10.37,2013-01-05 03:18:00,
2013-01-04 22:23:00,33.9,23.7,30.04,WNW,298,2.0,2.0,66,0.00,CLR,,0.00,WeatherDisplay:10.37,2013-01-05 03:23:00,
2013-01-04 22:28:00,33.9,23.4,30.05,NNW,342,1.1,0.0,65,0.00,CLR,,0.00,WeatherDisplay:10.37,2013-01-05 03:28:00,
2013-01-04 22:33:00,33.9,23.4,30.05,WNW,285,1.1,1.1,65,0.00,CLR,,0.00,WeatherDisplay:10.37,2013-01-05 03:33:00,
2013-01-04 22:38:00,33.9,23.7,30.05,NW,309,0.0,0.0,66,0.00,CLR,,0.00,WeatherDisplay:10.37,2013-01-05 03:38:00,
2013-01-04 22:43:00,33.7,23.5,30.05,West,281,3.5,3.5,66,0.00,CLR,,0.00,WeatherDisplay:10.37,2013-01-05 03:43:00,
2013-01-04 22:48:00,33.7,23.5,30.05,WSW,252,2.3,2.3,66,0.00,CLR,,0.00,WeatherDisplay:10.37,2013-01-05 03:48:00,
2013-01-04 22:53:00,33.6,23.4,30.05,WSW,252,1.1,1.1,66,0.00,CLR,,0.00,WeatherDisplay:10.37,2013-01-05 03:53:00,
2013-01-04 22:58:00,33.4,23.6,30.06,WSW,254,2.3,2.3,67,0.00,CLR,,0.00,WeatherDisplay:10.37,2013-01-05 03:58:00,
2013-01-04 23:03:00,33.2,23.4,30.06,SW,233,0.0,0.0,67,0.00,CLR,,0.00,WeatherDisplay:10.37,2013-01-05 04:03:00,
2013-01-04 23:08:00,33.0,23.6,30.06,SW,225,1.1,1.1,68,0.00,CLR,,0.00,WeatherDisplay:10.37,2013-01-05 04:08:00,
2013-01-04 23:13:00,32.9,23.5,30.06,SW,225,1.1,1.1,68,0.00,CLR,,0.00,WeatherDisplay:10.37,2013-01-05 04:13:00,
2013-01-04 23:18:00,32.7,23.3,30.06,West,261,1.1,1.1,68,0.00,CLR,,0.00,WeatherDisplay:10.37,2013-01-05 04:18:00,
2013-01-04 23:23:00,32.7,23.3,30.06,WSW,258,2.3,2.3,68,0.00,CLR,,0.00,WeatherDisplay:10.37,2013-01-05 04:23:00,
2013-01-04 23:28:00,32.6,23.6,30.06,WSW,258,0.0,0.1,69,0.00,CLR,,0.00,WeatherDisplay:10.37,2013-01-05 04:28:00,
2013-01-04 23:33:00,32.5,23.5,30.06,WSW,257,0.0,0.0,69,0.00,CLR,,0.00,WeatherDisplay:10.37,2013-01-05 04:33:00,
2013-01-04 23:38:00,32.3,23.3,30.06,WSW,258,1.1,1.1,69,0.00,CLR,,0.00,WeatherDisplay:10.37,2013-01-05 04:38:00,
2013-01-04 23:43:00,32.2,23.2,30.06,WSW,258,0.0,0.0,69,0.00,CLR,,0.00,WeatherDisplay:10.37,2013-01-05 04:43:00,
2013-01-04 23:48:00,32.1,23.1,30.06,WSW,258,1.1,0.0,69,0.00,CLR,,0.00,WeatherDisplay:10.37,2013-01-05 04:48:00,
2013-01-04 23:53:00,32.1,23.1,30.06,WSW,257,0.0,0.0,69,0.00,CLR,,0.00,WeatherDisplay:10.37,2013-01-05 04:53:00,
2013-01-04 23:58:00,32.1,23.1,30.07,WSW,249,1.1,0.0,69,0.00,CLR,,0.00,WeatherDisplay:10.37,2013-01-05 04:58:00,